Time;durP1;ratioP1;P1;durP2;ratioP2;P2;SDS_P1;SDS_P2;PMS_P1;PMS_P2;Temp;Humidity;BMP_temperature;BMP_pressure;BME280_temperature;BME280_humidity;BME280_pressure;Samples;Min_cycle;Max_cycle;Signal;HPM_P1;HPM_P2
2024/01/05 00:01:58;;;;;;;5.30;1.30;;;1.00;99.90;;;;;;2585348;54;20034;31
2024/01/05 00:04:31;;;;;;;3.60;1.30;;;1.00;99.90;;;;;;2585207;54;19997;31
2024/01/05 00:07:09;;;;;;;4.00;1.60;;;1.00;99.90;;;;;;2585263;54;20991;31
2024/01/05 00:09:42;;;;;;;2.85;1.23;;;1.00;99.90;;;;;;2585246;54;20030;31
2024/01/05 00:12:15;;;;;;;1.98;1.08;;;1.00;99.90;;;;;;2603577;47;20834;31
2024/01/05 00:14:50;;;;;;;1.70;0.80;;;1.00;99.90;;;;;;2585220;54;20038;31
2024/01/05 00:17:26;;;;;;;3.80;1.48;;;1.00;99.90;;;;;;2603129;46;20143;31
2024/01/05 00:20:00;;;;;;;2.57;1.27;;;1.10;99.90;;;;;;2585109;54;20100;31
2024/01/05 00:22:36;;;;;;;2.60;1.75;;;1.10;99.90;;;;;;2585510;54;21156;31
2024/01/05 00:25:11;;;;;;;3.85;1.50;;;1.10;99.90;;;;;;2604023;46;20033;31
2024/01/05 00:27:45;;;;;;;2.10;1.40;;;1.10;99.90;;;;;;2585195;54;20076;31
2024/01/05 00:30:20;;;;;;;4.70;1.48;;;1.10;99.90;;;;;;2585047;54;20082;31
2024/01/05 00:32:55;;;;;;;2.60;1.55;;;1.10;99.90;;;;;;2683324;39;21090;31
2024/01/05 00:35:30;;;;;;;3.77;1.60;;;1.10;99.90;;;;;;2585106;54;20741;31
2024/01/05 00:38:07;;;;;;;2.23;1.47;;;1.10;99.90;;;;;;2585066;54;20030;31
2024/01/05 00:40:41;;;;;;;2.97;1.90;;;1.20;99.90;;;;;;2585039;54;20975;31
2024/01/05 00:43:14;;;;;;;2.53;1.63;;;1.20;99.90;;;;;;2603664;46;20915;31
2024/01/05 00:45:49;;;;;;;2.80;1.77;;;1.20;99.90;;;;;;2585035;54;20784;31
2024/01/05 00:48:22;;;;;;;3.05;1.80;;;1.30;99.90;;;;;;2584926;54;20030;31
2024/01/05 00:50:57;;;;;;;4.53;1.50;;;1.30;99.90;;;;;;2585030;54;20909;31
2024/01/05 00:53:33;;;;;;;4.60;1.75;;;1.30;99.90;;;;;;2585252;54;20918;31
2024/01/05 00:56:07;;;;;;;4.47;2.70;;;1.30;99.90;;;;;;2585756;54;22379;31
2024/01/05 00:58:40;;;;;;;2.97;1.63;;;1.30;99.90;;;;;;2585004;54;21155;31
2024/01/05 01:01:14;;;;;;;3.23;1.60;;;1.30;99.90;;;;;;2585125;54;20935;31
2024/01/05 01:03:46;;;;;;;4.10;1.00;;;1.30;99.90;;;;;;2603720;47;20031;31
2024/01/05 01:06:19;;;;;;;4.50;1.80;;;1.30;99.90;;;;;;2603005;47;21023;31
2024/01/05 01:08:57;;;;;;;1.77;1.30;;;1.30;99.90;;;;;;2584968;54;20037;31
2024/01/05 01:11:32;;;;;;;2.93;1.30;;;1.20;99.90;;;;;;2585057;54;20034;31
2024/01/05 01:14:07;;;;;;;4.10;1.30;;;1.30;99.90;;;;;;2585076;54;20242;31
2024/01/05 01:16:40;;;;;;;7.03;1.63;;;1.30;99.90;;;;;;2584890;54;20601;31
2024/01/05 01:19:15;;;;;;;3.80;1.70;;;1.30;99.90;;;;;;2584806;54;20911;31
2024/01/05 01:21:50;;;;;;;2.70;1.80;;;1.30;99.90;;;;;;2585133;54;20965;31
2024/01/05 01:24:26;;;;;;;4.30;1.90;;;1.30;99.90;;;;;;2585883;54;20026;31
2024/01/05 01:26:58;;;;;;;;;;;1.30;99.90;;;;;;2585759;54;20907;31
2024/01/05 01:29:34;;;;;;;2.95;1.48;;;1.30;99.90;;;;;;2604369;46;19934;31
2024/01/05 01:32:10;;;;;;;3.77;2.00;;;1.30;99.90;;;;;;2585866;54;20897;31
2024/01/05 01:34:42;;;;;;;;;;;1.30;99.90;;;;;;2586212;54;21143;31
2024/01/05 01:37:17;;;;;;;3.63;1.40;;;1.30;99.90;;;;;;2585732;54;19941;31
2024/01/05 01:39:53;;;;;;;3.65;1.60;;;1.30;99.90;;;;;;2586004;54;21887;31
2024/01/05 01:42:26;;;;;;;6.10;1.80;;;1.30;99.90;;;;;;2585614;54;20049;31
2024/01/05 01:45:01;;;;;;;3.40;1.73;;;1.30;99.90;;;;;;2585607;54;20054;31
2024/01/05 01:47:36;;;;;;;6.20;1.80;;;1.30;99.90;;;;;;2585922;54;20956;31
2024/01/05 01:50:11;;;;;;;2.95;1.65;;;1.30;99.90;;;;;;2585231;54;20874;31
2024/01/05 01:52:49;;;;;;;5.70;2.28;;;1.30;99.90;;;;;;2585827;54;20034;31
2024/01/05 01:55:21;;;;;;;5.63;1.90;;;1.30;99.90;;;;;;2702451;39;21044;31
2024/01/05 01:57:59;;;;;;;5.60;2.70;;;1.30;99.90;;;;;;2585540;54;20027;31
2024/01/05 02:00:34;;;;;;;6.75;1.85;;;1.30;99.90;;;;;;2585438;54;20985;31
2024/01/05 02:03:07;;;;;;;4.22;2.08;;;1.40;99.90;;;;;;2585651;54;20030;31
2024/01/05 02:05:43;;;;;;;3.30;1.60;;;1.40;99.90;;;;;;2585700;54;20026;31
2024/01/05 02:08:16;;;;;;;6.40;1.92;;;1.40;99.90;;;;;;2585759;54;20033;31
2024/01/05 02:10:50;;;;;;;5.95;2.55;;;1.40;99.90;;;;;;2585780;54;20905;31
2024/01/05 02:13:27;;;;;;;5.35;2.10;;;1.40;99.90;;;;;;2585642;54;21013;31
2024/01/05 02:16:02;;;;;;;5.75;2.00;;;1.40;99.90;;;;;;2585721;54;20697;31
2024/01/05 02:18:35;;;;;;;4.70;2.35;;;1.40;99.90;;;;;;2585625;54;20961;31
2024/01/05 02:21:10;;;;;;;4.95;2.45;;;1.40;99.90;;;;;;2585499;54;20867;31
2024/01/05 02:23:46;;;;;;;6.75;2.30;;;1.40;99.90;;;;;;2603871;46;20033;31
2024/01/05 02:26:21;;;;;;;2.97;1.80;;;1.40;99.90;;;;;;2585400;54;21001;31
2024/01/05 02:28:56;;;;;;;5.40;2.15;;;1.40;99.90;;;;;;2585548;54;20945;31
2024/01/05 02:31:31;;;;;;;5.18;2.38;;;1.40;99.90;;;;;;2585775;54;20042;31
2024/01/05 02:34:04;;;;;;;5.47;2.35;;;1.40;99.90;;;;;;2585300;54;20030;31
2024/01/05 02:36:39;;;;;;;5.00;2.10;;;1.40;99.90;;;;;;2585633;54;20993;31
2024/01/05 02:39:17;;;;;;;4.55;1.90;;;1.40;99.90;;;;;;2585613;54;21151;31
2024/01/05 02:41:50;;;;;;;4.70;2.05;;;1.40;99.90;;;;;;2585427;54;20783;31
2024/01/05 02:44:24;;;;;;;7.60;2.80;;;1.40;99.90;;;;;;2585510;54;20899;31
2024/01/05 02:46:58;;;;;;;3.90;1.97;;;1.30;99.90;;;;;;2585359;54;20146;31
2024/01/05 02:49:33;;;;;;;3.95;1.90;;;1.30;99.90;;;;;;2585651;54;19941;31
2024/01/05 02:52:07;;;;;;;4.85;2.60;;;1.30;99.90;;;;;;2604086;46;20034;31
2024/01/05 02:54:44;;;;;;;5.15;2.15;;;1.30;99.90;;;;;;2585731;54;20185;31
2024/01/05 02:57:17;;;;;;;5.60;2.10;;;1.30;99.90;;;;;;2604127;46;20799;31
2024/01/05 02:59:51;;;;;;;3.00;1.93;;;1.30;99.90;;;;;;2585661;54;21197;31
2024/01/05 03:02:24;;;;;;;5.03;1.92;;;1.20;99.90;;;;;;2585591;54;20930;31
2024/01/05 03:04:57;;;;;;;3.00;1.60;;;1.20;99.90;;;;;;2585525;54;20796;31
2024/01/05 03:07:30;;;;;;;3.63;1.90;;;1.30;99.90;;;;;;2585532;54;20931;31
2024/01/05 03:10:02;;;;;;;5.00;2.17;;;1.30;99.90;;;;;;2585488;54;20928;31
2024/01/05 03:12:38;;;;;;;4.55;2.00;;;1.20;99.90;;;;;;2585101;54;21004;31
2024/01/05 03:15:12;;;;;;;4.75;2.03;;;1.20;99.90;;;;;;2585351;54;19957;31
2024/01/05 03:17:47;;;;;;;6.28;2.15;;;1.20;99.90;;;;;;2585082;54;20805;31
2024/01/05 03:20:22;;;;;;;3.70;1.70;;;1.20;99.90;;;;;;2585712;54;20050;31
2024/01/05 03:22:55;;;;;;;4.10;1.75;;;1.20;99.90;;;;;;2585385;54;21103;31
2024/01/05 03:25:30;;;;;;;5.95;2.60;;;1.30;99.90;;;;;;2585583;54;20030;31
2024/01/05 03:28:06;;;;;;;5.40;1.80;;;1.30;99.90;;;;;;2585501;54;20965;31
2024/01/05 03:30:42;;;;;;;4.95;1.85;;;1.30;99.90;;;;;;2585417;54;20081;31
2024/01/05 03:33:15;;;;;;;4.07;1.63;;;1.30;99.90;;;;;;2585540;54;20974;31
2024/01/05 03:35:50;;;;;;;4.30;1.80;;;1.30;99.90;;;;;;2585050;54;20826;31
2024/01/05 03:38:23;;;;;;;3.70;1.70;;;1.30;99.90;;;;;;2603409;46;20080;31
2024/01/05 03:40:56;;;;;;;4.20;1.80;;;1.30;99.90;;;;;;2585297;54;20030;31
2024/01/05 03:43:32;;;;;;;3.08;1.60;;;1.30;99.90;;;;;;2585392;54;20049;31
2024/01/05 03:46:06;;;;;;;4.75;1.90;;;1.30;99.90;;;;;;2585327;54;19938;31
2024/01/05 03:48:39;;;;;;;4.10;2.00;;;1.30;99.90;;;;;;2585332;54;21135;31
2024/01/05 03:51:12;;;;;;;4.82;2.10;;;1.30;99.90;;;;;;2585362;54;20060;31
2024/01/05 03:53:45;;;;;;;8.00;1.95;;;1.40;99.90;;;;;;2585336;54;21012;31
2024/01/05 03:56:18;;;;;;;6.30;2.00;;;1.40;99.90;;;;;;2585449;54;20028;31
2024/01/05 03:58:54;;;;;;;4.80;2.05;;;1.30;99.90;;;;;;2603992;46;21913;31
2024/01/05 04:01:27;;;;;;;6.88;2.50;;;1.30;99.90;;;;;;2585123;54;20913;31
2024/01/05 04:04:04;;;;;;;9.07;2.40;;;1.40;99.90;;;;;;2585400;54;20031;31
2024/01/05 04:06:39;;;;;;;5.25;2.88;;;1.40;99.90;;;;;;2585282;54;20809;31
2024/01/05 04:09:13;;;;;;;3.55;2.20;;;1.40;99.90;;;;;;2603595;46;20088;31
2024/01/05 04:11:46;;;;;;;5.13;2.03;;;1.40;99.90;;;;;;2585127;54;20901;31
2024/01/05 04:14:22;;;;;;;4.80;2.38;;;1.40;99.90;;;;;;2585403;54;20026;31
2024/01/05 04:16:56;;;;;;;5.50;2.50;;;1.40;99.90;;;;;;2603720;46;20069;31
2024/01/05 04:19:29;;;;;;;4.45;2.00;;;1.40;99.90;;;;;;2585485;54;21123;31
2024/01/05 04:22:04;;;;;;;3.55;1.63;;;1.40;99.90;;;;;;2585362;54;20030;31
2024/01/05 04:24:38;;;;;;;3.28;1.77;;;1.40;99.90;;;;;;2585164;54;20902;31
2024/01/05 04:27:11;;;;;;;4.47;1.70;;;1.40;99.90;;;;;;2585290;54;20077;31
2024/01/05 04:29:47;;;;;;;4.93;2.20;;;1.30;99.90;;;;;;2701269;39;22348;31
2024/01/05 04:32:21;;;;;;;4.80;2.20;;;1.30;99.90;;;;;;2585339;54;20045;31
2024/01/05 04:34:54;;;;;;;6.45;2.22;;;1.30;99.90;;;;;;2585133;54;20030;31
2024/01/05 04:37:29;;;;;;;5.88;2.67;;;1.30;99.90;;;;;;2585120;54;20971;31
2024/01/05 04:40:03;;;;;;;5.25;2.30;;;1.30;99.90;;;;;;2603918;46;21141;31
2024/01/05 04:42:37;;;;;;;4.82;2.38;;;1.30;99.90;;;;;;2584764;54;20069;31
2024/01/05 04:45:16;;;;;;;5.70;2.20;;;1.30;99.90;;;;;;2585170;54;20975;31
2024/01/05 04:47:49;;;;;;;5.47;2.10;;;1.30;99.90;;;;;;2585391;54;20038;31
2024/01/05 04:50:24;;;;;;;5.30;2.67;;;1.30;99.90;;;;;;2585048;54;20089;31
2024/01/05 04:52:58;;;;;;;3.55;2.20;;;1.30;99.90;;;;;;2603777;46;20028;31
2024/01/05 04:55:31;;;;;;;3.07;1.67;;;1.40;99.90;;;;;;2603714;46;20961;31
2024/01/05 04:58:04;;;;;;;2.75;1.45;;;1.30;99.90;;;;;;2603483;46;20033;31
2024/01/05 05:00:40;;;;;;;5.47;1.93;;;1.30;98.50;;;;;;2754141;31;21189;31
2024/01/05 05:03:13;;;;;;;3.50;1.85;;;1.40;99.50;;;;;;2754072;31;21300;31
2024/01/05 05:05:48;;;;;;;6.35;2.30;;;1.30;99.10;;;;;;2585135;54;20881;31
2024/01/05 05:08:23;;;;;;;4.80;1.90;;;1.30;99.90;;;;;;2603598;47;20935;31
2024/01/05 05:10:56;;;;;;;5.03;1.90;;;1.30;99.90;;;;;;2603749;47;20804;31
2024/01/05 05:13:29;;;;;;;5.00;1.77;;;1.30;99.90;;;;;;2683079;39;21197;31
2024/01/05 05:16:07;;;;;;;3.42;1.90;;;1.30;99.90;;;;;;2585158;54;20992;31
2024/01/05 05:18:41;;;;;;;7.43;2.05;;;1.30;99.50;;;;;;2585039;54;20959;31
2024/01/05 05:21:14;;;;;;;7.35;2.60;;;1.30;99.10;;;;;;2585353;54;22412;31
2024/01/05 05:23:47;;;;;;;7.35;2.20;;;1.30;97.70;;;;;;2701307;39;22423;31
2024/01/05 05:26:20;;;;;;;6.57;2.08;;;1.30;97.10;;;;;;2585010;54;20033;31
2024/01/05 05:28:53;;;;;;;4.93;1.92;;;1.20;96.20;;;;;;2683261;39;21095;31
2024/01/05 05:31:29;;;;;;;4.70;2.50;;;1.20;96.20;;;;;;2585088;54;20987;31
2024/01/05 05:34:02;;;;;;;;;;;1.20;98.00;;;;;;2585292;54;20049;31
2024/01/05 05:36:36;;;;;;;6.57;2.65;;;1.20;98.10;;;;;;2584904;54;20797;31
2024/01/05 05:39:12;;;;;;;4.20;2.50;;;1.20;98.10;;;;;;2603168;47;20052;31
2024/01/05 05:41:46;;;;;;;4.80;2.63;;;1.20;99.20;;;;;;2584694;54;21009;31
2024/01/05 05:44:19;;;;;;;9.03;3.40;;;1.10;99.90;;;;;;2603426;47;20942;31
2024/01/05 05:46:56;;;;;;;9.77;3.80;;;1.10;99.90;;;;;;2585026;54;20026;31
2024/01/05 05:49:30;;;;;;;8.00;3.50;;;1.10;99.90;;;;;;2603411;47;20837;31
2024/01/05 05:52:04;;;;;;;5.10;3.13;;;1.10;99.90;;;;;;2603149;47;20906;31
2024/01/05 05:54:39;;;;;;;5.00;2.90;;;1.20;99.90;;;;;;2584783;54;20765;31
2024/01/05 05:57:13;;;;;;;5.97;2.80;;;1.10;99.90;;;;;;2584878;54;20038;31
2024/01/05 05:59:46;;;;;;;5.63;2.30;;;1.10;99.90;;;;;;2584797;54;20913;31
2024/01/05 06:02:23;;;;;;;6.20;2.53;;;1.10;99.90;;;;;;2584907;54;20031;31
2024/01/05 06:05:00;;;;;;;7.18;3.08;;;1.10;99.90;;;;;;2584952;54;20935;31
2024/01/05 06:07:35;;;;;;;;;;;1.10;99.90;;;;;;2585267;54;20018;31
2024/01/05 06:10:13;;;;;;;7.35;2.85;;;1.10;99.90;;;;;;2585655;54;19934;31
2024/01/05 06:12:47;;;;;;;5.75;2.60;;;1.10;99.90;;;;;;2585590;54;20096;31
2024/01/05 06:15:27;;;;;;;8.17;3.70;;;1.10;99.90;;;;;;2585891;54;20931;31
2024/01/05 06:17:59;;;;;;;9.80;3.55;;;1.10;99.90;;;;;;2603760;46;20961;31
2024/01/05 06:20:39;;;;;;;8.48;3.22;;;1.00;99.90;;;;;;2585962;54;20037;31
2024/01/05 06:23:16;;;;;;;5.00;2.55;;;1.10;99.90;;;;;;2604262;46;22091;31
2024/01/05 06:25:49;;;;;;;;;;;1.10;99.90;;;;;;2586068;54;20031;31
2024/01/05 06:28:26;;;;;;;11.90;3.33;;;1.10;99.90;;;;;;2604231;46;19938;31
2024/01/05 06:31:02;;;;;;;6.63;3.20;;;1.10;99.90;;;;;;2604177;46;19934;31
2024/01/05 06:33:37;;;;;;;5.70;2.80;;;1.10;99.90;;;;;;2604174;46;20053;31
2024/01/05 06:36:16;;;;;;;7.30;2.80;;;1.10;99.90;;;;;;2683722;39;21164;31
2024/01/05 06:38:55;;;;;;;6.80;3.30;;;1.10;99.90;;;;;;2603872;46;20034;31
2024/01/05 06:41:31;;;;;;;5.75;2.75;;;1.10;99.90;;;;;;2585871;54;22638;31
2024/01/05 06:44:08;;;;;;;6.60;2.80;;;1.10;99.90;;;;;;2604307;46;20057;31
2024/01/05 06:46:44;;;;;;;6.07;3.08;;;1.00;99.90;;;;;;2585679;54;20063;31
2024/01/05 06:49:17;;;;;;;;;;;1.00;99.90;;;;;;2585911;54;21055;31
2024/01/05 06:51:56;;;;;;;5.40;2.42;;;1.00;99.90;;;;;;2603615;46;19941;31
2024/01/05 06:54:34;;;;;;;5.25;2.25;;;0.90;99.90;;;;;;2585606;54;20057;31
2024/01/05 06:57:07;;;;;;;5.45;2.60;;;0.90;99.90;;;;;;2683670;39;21042;31
2024/01/05 06:59:43;;;;;;;3.72;2.13;;;0.80;99.90;;;;;;2585612;54;20072;31
2024/01/05 07:02:17;;;;;;;4.10;2.60;;;0.80;99.90;;;;;;2585415;54;20035;31
2024/01/05 07:04:53;;;;;;;5.88;2.92;;;0.80;99.90;;;;;;2602496;46;20029;31
2024/01/05 07:07:33;;;;;;;7.70;3.35;;;0.70;99.90;;;;;;2585783;54;20884;31
2024/01/05 07:10:13;;;;;;;3.90;2.40;;;0.70;99.90;;;;;;2585513;54;21049;31
2024/01/05 07:12:52;;;;;;;5.00;2.80;;;0.70;99.90;;;;;;2585672;54;20026;31
2024/01/05 07:15:25;;;;;;;4.60;2.30;;;0.70;99.90;;;;;;2603850;46;21050;31
2024/01/05 07:18:02;;;;;;;6.27;2.93;;;0.70;99.90;;;;;;2585241;54;20053;31
2024/01/05 07:20:36;;;;;;;6.97;2.78;;;0.70;99.90;;;;;;2604092;46;21040;31
2024/01/05 07:23:17;;;;;;;5.22;2.40;;;0.70;99.90;;;;;;2585320;54;21013;31
2024/01/05 07:25:55;;;;;;;3.90;2.50;;;0.70;99.90;;;;;;2603785;46;20030;31
2024/01/05 07:28:29;;;;;;;5.07;2.63;;;0.70;99.90;;;;;;2603708;46;20077;31
2024/01/05 07:31:08;;;;;;;6.47;3.28;;;0.70;99.90;;;;;;2585418;54;20157;31
2024/01/05 07:33:43;;;;;;;6.43;2.97;;;0.80;99.90;;;;;;2585468;54;20073;31
2024/01/05 07:36:19;;;;;;;5.83;3.07;;;0.80;99.90;;;;;;2585338;54;20038;31
2024/01/05 07:38:59;;;;;;;12.15;3.40;;;0.80;99.90;;;;;;2585346;54;20269;31
2024/01/05 07:41:33;;;;;;;6.60;2.97;;;0.80;99.90;;;;;;2585623;54;20927;31
2024/01/05 07:44:07;;;;;;;6.63;3.80;;;0.80;99.90;;;;;;2584395;54;20136;31
2024/01/05 07:46:45;;;;;;;9.38;3.80;;;0.80;99.90;;;;;;2585771;54;21332;31
2024/01/05 07:49:21;;;;;;;9.43;4.57;;;0.90;99.90;;;;;;2585562;54;20026;31
2024/01/05 07:51:56;;;;;;;8.38;4.63;;;0.90;99.90;;;;;;2603673;46;20002;31
2024/01/05 07:54:33;;;;;;;7.65;4.10;;;0.90;99.90;;;;;;2585390;54;20030;31
2024/01/05 07:57:07;;;;;;;7.85;4.55;;;0.90;99.90;;;;;;2585434;54;20968;31
2024/01/05 07:59:46;;;;;;;;;;;0.90;99.90;;;;;;2604225;46;20078;31
2024/01/05 08:02:22;;;;;;;11.80;5.43;;;0.90;99.90;;;;;;2585289;54;20779;31
2024/01/05 08:04:57;;;;;;;10.43;5.22;;;0.90;99.90;;;;;;2585472;54;20934;31
2024/01/05 08:07:36;;;;;;;8.00;4.07;;;0.90;99.90;;;;;;2604185;46;20034;31
2024/01/05 08:10:16;;;;;;;10.13;4.47;;;1.00;99.90;;;;;;2585551;54;20022;31
2024/01/05 08:12:51;;;;;;;11.95;5.55;;;0.90;99.90;;;;;;2603782;46;21019;31
2024/01/05 08:15:27;;;;;;;12.32;6.03;;;0.90;99.90;;;;;;2603836;46;22558;31
2024/01/05 08:18:04;;;;;;;9.55;6.10;;;0.90;99.90;;;;;;2585471;54;20906;31
2024/01/05 08:23:25;;;;;;;8.27;4.57;;;0.90;99.90;;;;;;2585595;54;20026;31
2024/01/05 08:26:03;;;;;;;6.07;3.80;;;1.00;99.90;;;;;;2683477;39;20988;31
2024/01/05 08:28:40;;;;;;;6.45;4.07;;;0.90;99.90;;;;;;2585437;54;20938;31
2024/01/05 08:31:15;;;;;;;6.97;3.60;;;1.00;99.90;;;;;;2603730;46;20941;31
2024/01/05 08:33:51;;;;;;;8.77;3.53;;;1.00;99.90;;;;;;2585391;54;20034;31
2024/01/05 08:36:28;;;;;;;7.97;3.80;;;1.00;99.90;;;;;;2584264;54;20242;31
2024/01/05 08:39:05;;;;;;;7.30;3.80;;;1.00;99.90;;;;;;2585174;54;20888;31
2024/01/05 08:41:45;;;;;;;11.35;5.25;;;1.00;99.90;;;;;;2585379;54;22429;31
2024/01/05 08:44:20;;;;;;;18.98;7.43;;;1.00;99.90;;;;;;2584904;54;20932;31
2024/01/05 08:47:00;;;;;;;14.35;7.40;;;1.10;99.90;;;;;;2585278;54;20049;31
2024/01/05 08:49:36;;;;;;;27.65;11.30;;;1.10;99.90;;;;;;2585437;54;21119;31
2024/01/05 08:52:12;;;;;;;26.85;11.98;;;1.10;99.90;;;;;;2683278;39;20942;31
2024/01/05 08:54:49;;;;;;;36.55;16.80;;;1.10;99.90;;;;;;2585417;54;20038;31
2024/01/05 08:57:30;;;;;;;28.63;15.10;;;1.10;99.90;;;;;;2603923;46;20033;31
2024/01/05 09:00:09;;;;;;;29.05;14.15;;;1.20;99.90;;;;;;2585243;54;20949;31
2024/01/05 09:02:45;;;;;;;18.80;9.50;;;1.20;99.90;;;;;;2585205;54;20066;31
2024/01/05 09:05:21;;;;;;;17.52;8.50;;;1.20;99.90;;;;;;2603429;47;20144;31
2024/01/05 09:07:56;;;;;;;;;;;1.20;99.90;;;;;;2604105;47;20068;31
2024/01/05 09:10:32;;;;;;;12.48;6.47;;;1.20;99.90;;;;;;2585500;54;20865;31
2024/01/05 09:13:11;;;;;;;11.95;6.45;;;1.30;99.90;;;;;;2603379;47;20857;31
2024/01/05 09:15:47;;;;;;;18.30;8.40;;;1.30;99.90;;;;;;2603371;47;20055;31
2024/01/05 09:18:21;;;;;;;;;;;1.30;99.90;;;;;;2585163;54;20048;31
2024/01/05 09:21:00;;;;;;;13.85;6.20;;;1.30;99.90;;;;;;2603422;47;20850;31
2024/01/05 09:23:41;;;;;;;11.13;6.68;;;1.40;99.90;;;;;;2683239;39;21095;31
2024/01/05 09:26:21;;;;;;;8.35;4.75;;;1.40;99.90;;;;;;2584728;54;20942;31
2024/01/05 09:28:59;;;;;;;9.65;5.50;;;1.50;99.90;;;;;;2585117;54;20062;31
2024/01/05 09:31:36;;;;;;;14.55;5.80;;;1.60;99.90;;;;;;2603561;47;20022;31
2024/01/05 09:34:12;;;;;;;9.90;5.50;;;1.60;99.90;;;;;;2585092;54;20985;31
2024/01/05 09:36:49;;;;;;;;;;;1.60;99.90;;;;;;2603911;47;20912;31
2024/01/05 09:39:24;;;;;;;8.85;4.00;;;1.60;99.90;;;;;;2585282;54;20998;31
2024/01/05 09:42:00;;;;;;;10.23;4.72;;;1.70;99.90;;;;;;2602927;47;20882;31
2024/01/05 09:44:38;;;;;;;15.33;7.57;;;1.70;99.90;;;;;;2586269;54;21158;31
2024/01/05 09:47:14;;;;;;;14.67;7.20;;;1.70;99.90;;;;;;2586071;54;20053;31
2024/01/05 09:49:52;;;;;;;9.65;4.80;;;1.80;99.90;;;;;;2585859;54;21010;31
2024/01/05 09:52:28;;;;;;;10.80;5.50;;;1.80;99.90;;;;;;2584902;54;20047;31
2024/01/05 09:55:05;;;;;;;9.55;5.25;;;1.90;99.90;;;;;;2603828;46;20161;31
2024/01/05 09:57:43;;;;;;;7.38;4.47;;;1.90;99.90;;;;;;2585810;54;20928;31
2024/01/05 10:00:23;;;;;;;16.40;6.80;;;1.90;99.90;;;;;;2604484;46;20978;31
2024/01/05 10:03:00;;;;;;;14.50;6.13;;;1.90;99.90;;;;;;2604503;46;20968;31
2024/01/05 10:05:37;;;;;;;13.60;6.80;;;1.90;99.90;;;;;;2584788;54;20912;31
2024/01/05 10:08:13;;;;;;;9.65;5.55;;;2.00;99.90;;;;;;2585596;54;20850;31
2024/01/05 10:10:49;;;;;;;10.68;4.50;;;2.00;99.90;;;;;;2585954;54;21922;31
2024/01/05 10:13:26;;;;;;;9.98;4.88;;;2.00;99.90;;;;;;2585509;54;20851;31
2024/01/05 10:16:04;;;;;;;7.13;4.15;;;2.00;99.90;;;;;;2604101;46;20923;31
2024/01/05 10:18:42;;;;;;;11.48;5.10;;;2.00;99.90;;;;;;2585902;54;20034;31
2024/01/05 10:21:19;;;;;;;8.55;4.90;;;2.00;99.90;;;;;;2585374;54;21000;31
2024/01/05 10:23:58;;;;;;;10.20;5.00;;;2.10;99.90;;;;;;2604029;46;20817;31
2024/01/05 10:26:34;;;;;;;8.90;4.88;;;2.10;99.90;;;;;;2585259;54;20941;31
2024/01/05 10:29:14;;;;;;;27.45;9.65;;;2.10;99.90;;;;;;2585919;54;20026;31
2024/01/05 10:31:53;;;;;;;18.70;7.80;;;2.20;99.90;;;;;;2584777;54;20026;31
2024/01/05 10:34:37;;;;;;;12.75;6.10;;;2.20;99.90;;;;;;2585831;54;20945;31
2024/01/05 10:37:14;;;;;;;12.95;5.55;;;2.20;99.90;;;;;;2585541;54;20026;31
2024/01/05 10:39:56;;;;;;;11.07;4.97;;;2.30;99.90;;;;;;2585820;54;20980;31
2024/01/05 10:42:28;;;;;;;9.00;4.93;;;2.30;99.90;;;;;;2585600;54;21042;31
2024/01/05 10:45:09;;;;;;;13.10;5.90;;;2.30;99.90;;;;;;2603950;46;20816;31
2024/01/05 10:47:47;;;;;;;8.95;5.00;;;2.30;99.90;;;;;;2585383;54;20053;31
2024/01/05 10:50:24;;;;;;;13.27;6.28;;;2.30;99.90;;;;;;2585631;54;20983;31
2024/01/05 10:52:58;;;;;;;8.25;4.63;;;2.30;99.90;;;;;;2585745;54;20869;31
2024/01/05 10:55:37;;;;;;;8.73;4.23;;;2.40;99.90;;;;;;2585413;54;20757;31
2024/01/05 10:58:12;;;;;;;7.40;4.47;;;2.40;99.90;;;;;;2585542;54;20902;31
2024/01/05 11:00:48;;;;;;;7.72;5.00;;;2.40;99.90;;;;;;2702215;39;22459;31
2024/01/05 11:03:28;;;;;;;8.60;4.50;;;2.30;99.90;;;;;;2603786;46;19935;31
2024/01/05 11:06:10;;;;;;;8.95;5.90;;;2.40;99.90;;;;;;2683614;39;21221;31
2024/01/05 11:08:52;;;;;;;8.90;4.43;;;2.40;99.90;;;;;;2603804;46;20048;31
2024/01/05 11:11:34;;;;;;;10.50;4.77;;;2.40;99.90;;;;;;2585488;54;20887;31
2024/01/05 11:14:39;;;;;;;12.75;5.35;;;2.40;99.90;;;;;;2584621;54;20905;31
2024/01/05 11:17:35;;;;;;;11.10;5.00;;;2.40;99.90;;;;;;2585330;54;20891;31
2024/01/05 11:20:22;;;;;;;10.20;5.25;;;2.40;99.90;;;;;;2585833;54;21193;31
2024/01/05 11:23:00;;;;;;;;;;;2.50;99.90;;;;;;2585618;54;20026;31
2024/01/05 11:25:34;;;;;;;10.93;6.00;;;2.40;99.90;;;;;;2585038;54;19940;31
2024/01/05 11:28:09;;;;;;;9.77;5.00;;;2.50;99.90;;;;;;2585415;54;20027;31
2024/01/05 11:30:51;;;;;;;13.27;5.77;;;2.50;99.90;;;;;;2603378;46;20022;31
2024/01/05 11:33:46;;;;;;;12.35;6.10;;;2.50;99.90;;;;;;2604021;46;20113;31
2024/01/05 11:36:22;;;;;;;11.60;5.47;;;2.50;99.90;;;;;;2585140;54;20034;31
2024/01/05 11:39:00;;;;;;;12.90;5.33;;;2.60;99.90;;;;;;2604153;46;20861;31
2024/01/05 11:41:38;;;;;;;13.37;5.57;;;2.60;99.90;;;;;;2603986;46;20903;31
2024/01/05 11:44:36;;;;;;;10.90;6.10;;;2.60;99.90;;;;;;2585449;54;20037;31
2024/01/05 11:47:14;;;;;;;11.93;6.55;;;2.70;99.90;;;;;;2585051;54;20026;31
2024/01/05 11:49:48;;;;;;;11.95;6.35;;;2.70;99.90;;;;;;2603647;46;20930;31
2024/01/05 11:52:25;;;;;;;15.27;7.77;;;2.70;99.90;;;;;;2585300;54;21028;31
2024/01/05 11:55:10;;;;;;;;;;;2.70;99.90;;;;;;2585587;54;21177;31
2024/01/05 11:57:49;;;;;;;16.40;6.70;;;2.70;99.90;;;;;;2584980;54;19944;31
2024/01/05 12:00:24;;;;;;;17.60;7.60;;;2.80;99.90;;;;;;2603550;46;20073;31
2024/01/05 12:03:03;;;;;;;31.30;12.15;;;2.80;99.90;;;;;;2585109;54;20036;31
2024/01/05 12:05:36;;;;;;;27.55;11.35;;;2.80;99.90;;;;;;2585016;54;20918;31
2024/01/05 12:08:15;;;;;;;12.50;5.88;;;2.80;99.90;;;;;;2584907;54;20026;31
2024/01/05 12:10:55;;;;;;;12.48;6.50;;;2.80;99.90;;;;;;2585297;54;20048;31
2024/01/05 12:13:33;;;;;;;35.20;13.85;;;2.80;99.90;;;;;;2585267;54;20093;31
2024/01/05 12:16:07;;;;;;;10.52;5.88;;;2.90;99.90;;;;;;2682850;39;21402;31
2024/01/05 12:18:49;;;;;;;11.80;5.88;;;2.90;99.90;;;;;;2585278;54;20022;31
2024/01/05 12:21:26;;;;;;;11.00;5.55;;;2.90;99.90;;;;;;2585298;54;20018;31
2024/01/05 12:24:05;;;;;;;10.95;6.10;;;2.90;99.90;;;;;;2701268;39;21095;31
2024/01/05 12:26:43;;;;;;;13.15;6.55;;;3.00;99.90;;;;;;2585296;54;20964;31
2024/01/05 12:29:24;;;;;;;10.27;5.57;;;3.00;99.90;;;;;;2584278;54;20897;31
2024/01/05 12:31:59;;;;;;;18.00;7.65;;;3.10;99.90;;;;;;2683565;39;21039;31
2024/01/05 12:34:34;;;;;;;9.87;5.10;;;3.20;99.90;;;;;;2585235;54;20963;31
2024/01/05 12:37:12;;;;;;;;;;;3.20;99.90;;;;;;2585467;54;20030;31
2024/01/05 12:39:50;;;;;;;11.10;5.10;;;3.20;99.90;;;;;;2584953;54;19958;31
2024/01/05 12:42:28;;;;;;;10.32;5.10;;;3.30;99.90;;;;;;2585397;54;20868;31
2024/01/05 12:45:05;;;;;;;12.65;6.75;;;3.30;99.90;;;;;;2683340;39;21168;31
2024/01/05 12:47:41;;;;;;;10.38;5.40;;;3.30;99.90;;;;;;2584944;54;20145;31
2024/01/05 12:50:27;;;;;;;11.65;6.00;;;3.30;99.90;;;;;;2603683;46;20987;31
2024/01/05 12:53:03;;;;;;;12.03;5.77;;;3.30;99.90;;;;;;2603641;46;20027;31
2024/01/05 12:55:37;;;;;;;;;;;3.30;99.90;;;;;;2584352;54;20034;31
2024/01/05 12:58:14;;;;;;;13.80;6.40;;;3.30;99.90;;;;;;2584912;54;20706;31
2024/01/05 13:00:59;;;;;;;14.80;7.65;;;3.30;99.90;;;;;;2584955;54;20794;31
2024/01/05 13:03:36;;;;;;;14.70;7.20;;;3.30;99.90;;;;;;2585251;54;20912;31
2024/01/05 13:06:15;;;;;;;14.82;7.88;;;3.40;99.90;;;;;;2701686;39;22352;31
2024/01/05 13:09:00;;;;;;;17.40;7.20;;;3.20;99.90;;;;;;2585189;54;20031;31
2024/01/05 13:11:35;;;;;;;13.27;6.88;;;3.20;99.90;;;;;;2682970;39;21215;31
2024/01/05 13:14:09;;;;;;;13.75;6.85;;;3.20;99.90;;;;;;2603486;47;21253;31
2024/01/05 13:16:47;;;;;;;13.80;6.30;;;3.20;99.90;;;;;;2603592;47;20919;31
2024/01/05 13:19:23;;;;;;;14.73;7.68;;;3.20;99.90;;;;;;2585735;54;20993;31
2024/01/05 13:21:59;;;;;;;15.43;7.28;;;3.20;99.90;;;;;;2586005;54;20034;31
2024/01/05 13:24:36;;;;;;;13.33;8.17;;;3.20;99.90;;;;;;2585734;54;21059;31
2024/01/05 13:27:13;;;;;;;16.75;8.50;;;3.20;99.90;;;;;;2585910;54;20235;31
2024/01/05 13:32:47;;;;;;;16.33;7.27;;;3.20;99.90;;;;;;2584829;54;19934;31
2024/01/05 13:35:26;;;;;;;13.50;8.20;;;3.20;99.90;;;;;;2693022;39;20549;31
2024/01/05 13:38:01;;;;;;;15.90;8.05;;;3.20;99.90;;;;;;2585718;54;20033;31
2024/01/05 13:46:37;;;;;;;15.52;8.80;;;3.20;99.90;;;;;;2584510;54;20953;31
2024/01/05 13:52:26;;;;;;;19.50;8.68;;;3.20;99.90;;;;;;2603370;54;19938;31
2024/01/05 13:58:06;;;;;;;22.25;9.38;;;3.20;99.90;;;;;;2584817;54;19958;31
2024/01/05 14:00:58;;;;;;;;;;;3.20;99.90;;;;;;2585990;54;20057;31
2024/01/05 14:03:33;;;;;;;18.90;8.93;;;3.20;99.90;;;;;;2585603;54;19966;31
2024/01/05 14:06:12;;;;;;;18.50;10.25;;;3.20;99.90;;;;;;2585777;54;20108;31
2024/01/05 14:08:55;;;;;;;16.55;8.70;;;3.20;99.90;;;;;;2585626;54;20940;31
2024/01/05 14:11:34;;;;;;;18.87;9.80;;;3.20;99.90;;;;;;2586037;54;19941;31
2024/01/05 14:14:14;;;;;;;21.70;11.33;;;3.20;99.90;;;;;;2585764;54;20993;31